createdAt,value
2017-04-09T00:00:20.276Z,9.80
2017-04-09T00:01:20.042Z,9.80
2017-04-09T00:02:19.832Z,9.70
2017-04-09T00:03:19.582Z,9.80
2017-04-09T00:04:19.320Z,9.70
2017-04-09T00:05:19.027Z,9.80
2017-04-09T00:06:19.508Z,9.80
2017-04-09T00:07:19.251Z,9.80
2017-04-09T00:08:19.060Z,9.80
2017-04-09T00:09:18.823Z,9.80
2017-04-09T00:10:18.596Z,9.80
2017-04-09T00:11:18.331Z,9.70
2017-04-09T00:12:18.111Z,9.70
2017-04-09T00:13:17.838Z,9.70
2017-04-09T00:14:18.370Z,9.70
2017-04-09T00:15:18.111Z,9.70
2017-04-09T00:16:17.865Z,9.80
2017-04-09T00:17:17.669Z,9.80
2017-04-09T00:18:17.434Z,9.70
2017-04-09T00:19:17.172Z,9.60
2017-04-09T00:20:16.992Z,9.70
2017-04-09T00:21:16.721Z,9.70
2017-04-09T00:22:16.497Z,9.60
2017-04-09T00:23:16.242Z,9.60
2017-04-09T00:24:16.026Z,9.60
2017-04-09T00:25:15.886Z,9.60
2017-04-09T00:26:15.693Z,9.60
2017-04-09T00:27:15.433Z,9.70
2017-04-09T00:28:15.188Z,9.60
2017-04-09T00:29:14.941Z,9.70
2017-04-09T00:30:14.676Z,9.60
2017-04-09T00:31:14.423Z,9.70
2017-04-09T00:32:14.311Z,9.70
2017-04-09T00:33:14.047Z,9.70
2017-04-09T00:34:14.110Z,9.70
2017-04-09T00:35:13.948Z,9.70
2017-04-09T00:36:13.696Z,9.60
2017-04-09T00:37:13.465Z,9.60
2017-04-09T00:38:13.272Z,9.60
2017-04-09T00:39:13.738Z,9.60
2017-04-09T00:40:13.611Z,9.60
2017-04-09T00:41:13.411Z,9.60
2017-04-09T00:42:13.170Z,9.60
2017-04-09T00:43:13.050Z,9.60
2017-04-09T00:44:12.870Z,9.60
2017-04-09T00:45:12.688Z,9.60
2017-04-09T00:46:13.232Z,9.70
2017-04-09T00:47:12.230Z,9.60
2017-04-09T00:48:11.971Z,9.70
2017-04-09T00:49:11.710Z,9.70
2017-04-09T00:50:11.512Z,9.70
2017-04-09T00:51:11.274Z,9.80
2017-04-09T00:52:11.049Z,9.70
2017-04-09T00:53:10.861Z,9.60
2017-04-09T00:54:11.345Z,9.70
2017-04-09T00:55:11.111Z,9.60
2017-04-09T00:56:10.885Z,9.60
2017-04-09T00:57:10.621Z,9.60
2017-04-09T00:58:11.107Z,9.60
2017-04-09T00:59:10.864Z,9.60
2017-04-09T01:00:10.713Z,9.60
2017-04-09T01:01:10.535Z,9.60
2017-04-09T01:02:11.150Z,9.50
2017-04-09T01:03:11.634Z,9.60
2017-04-09T01:04:11.391Z,9.50
2017-04-09T01:05:11.151Z,9.60
2017-04-09T01:06:10.991Z,9.60
2017-04-09T01:07:10.699Z,9.60
2017-04-09T01:08:10.462Z,9.60
2017-04-09T01:09:10.226Z,9.70
2017-04-09T01:10:09.985Z,9.70
2017-04-09T01:11:09.740Z,9.60
2017-04-09T01:12:09.578Z,9.70
2017-04-09T01:13:09.394Z,9.60
2017-04-09T01:14:09.148Z,9.60
2017-04-09T01:15:08.935Z,9.60
2017-04-09T01:16:08.712Z,9.60
2017-04-09T01:17:08.474Z,9.60
2017-04-09T01:18:09.047Z,9.70
2017-04-09T01:19:08.808Z,9.70
2017-04-09T01:20:08.610Z,9.70
2017-04-09T01:21:08.346Z,9.70
2017-04-09T01:22:08.136Z,9.70
2017-04-09T01:23:07.866Z,9.70
2017-04-09T01:24:07.651Z,9.60
2017-04-09T01:25:07.430Z,9.70
2017-04-09T01:26:07.914Z,9.60
2017-04-09T01:27:08.448Z,9.70
2017-04-09T01:28:08.237Z,9.70
2017-04-09T01:29:08.848Z,9.60
2017-04-09T01:30:08.694Z,9.60
2017-04-09T01:31:08.404Z,9.70
2017-04-09T01:32:08.161Z,9.70
2017-04-09T01:33:08.019Z,9.60
2017-04-09T01:34:07.766Z,9.70
2017-04-09T01:35:07.564Z,9.70
2017-04-09T01:36:08.102Z,9.70
2017-04-09T01:37:07.887Z,9.60
2017-04-09T01:38:07.788Z,9.60
2017-04-09T01:39:07.527Z,9.60
2017-04-09T01:40:07.447Z,9.60
2017-04-09T01:41:07.230Z,9.60
2017-04-09T01:42:07.022Z,9.60
2017-04-09T01:43:06.794Z,9.60
2017-04-09T01:44:06.582Z,9.50
2017-04-09T01:45:07.144Z,9.50
2017-04-09T01:46:06.948Z,9.50
2017-04-09T01:47:06.705Z,9.50
2017-04-09T01:48:06.490Z,9.50
2017-04-09T01:49:06.263Z,9.50
2017-04-09T01:50:06.047Z,9.60
2017-04-09T01:51:05.815Z,9.60
2017-04-09T01:52:05.616Z,9.50
2017-04-09T01:53:05.383Z,9.50
2017-04-09T01:54:05.143Z,9.50
2017-04-09T01:55:04.930Z,9.50
2017-04-09T01:56:04.741Z,9.50
2017-04-09T01:57:04.536Z,9.50
2017-04-09T01:58:04.352Z,9.50
2017-04-09T01:59:04.134Z,9.60
2017-04-09T02:00:03.951Z,9.60
2017-04-09T02:01:03.724Z,9.60
2017-04-09T02:02:03.538Z,9.60
2017-04-09T02:03:03.344Z,9.60
2017-04-09T02:04:03.218Z,9.60
2017-04-09T02:05:02.963Z,9.50
2017-04-09T02:06:02.694Z,9.50
2017-04-09T02:07:02.557Z,9.60
2017-04-09T02:08:02.292Z,9.50
2017-04-09T02:09:02.852Z,9.40
2017-04-09T02:10:02.719Z,9.50
2017-04-09T02:11:02.491Z,9.50
2017-04-09T02:12:02.258Z,9.50
2017-04-09T02:13:02.034Z,9.50
2017-04-09T02:14:01.825Z,9.60
2017-04-09T02:15:02.363Z,9.60
2017-04-09T02:16:02.119Z,9.50
2017-04-09T02:17:01.946Z,9.50
2017-04-09T02:18:02.416Z,9.50
2017-04-09T02:19:02.197Z,9.60
2017-04-09T02:20:01.936Z,9.60
2017-04-09T02:21:01.735Z,9.60
2017-04-09T02:22:01.466Z,9.60
2017-04-09T02:23:01.947Z,9.60
2017-04-09T02:24:01.711Z,9.60
2017-04-09T02:25:01.442Z,9.70
2017-04-09T02:26:01.247Z,9.70
2017-04-09T02:27:00.991Z,9.70
2017-04-09T02:28:00.742Z,9.80
2017-04-09T02:29:01.235Z,9.80
2017-04-09T02:30:01.021Z,9.80
2017-04-09T02:31:00.748Z,9.80
2017-04-09T02:32:00.552Z,9.80
2017-04-09T02:33:00.309Z,9.80
2017-04-09T02:34:00.790Z,9.60
2017-04-09T02:35:00.543Z,9.70
2017-04-09T02:36:00.291Z,9.60
2017-04-09T02:37:00.054Z,9.60
2017-04-09T02:37:59.860Z,9.60
2017-04-09T02:38:59.610Z,9.60
2017-04-09T02:40:00.141Z,9.60
2017-04-09T02:40:59.926Z,9.60
2017-04-09T02:42:00.508Z,9.60
2017-04-09T02:43:00.295Z,9.60
2017-04-09T02:44:00.011Z,9.50
2017-04-09T02:44:59.761Z,9.50
2017-04-09T02:46:00.279Z,9.60
2017-04-09T02:47:00.059Z,9.60
2017-04-09T02:47:59.878Z,9.60
2017-04-09T02:48:59.651Z,9.70
2017-04-09T02:49:59.391Z,9.60
2017-04-09T02:50:59.131Z,9.60
2017-04-09T02:51:58.903Z,9.60
2017-04-09T02:52:58.714Z,9.60
2017-04-09T02:53:58.510Z,9.60
2017-04-09T02:54:58.241Z,9.50
2017-04-09T02:55:57.990Z,9.50
2017-04-09T02:56:57.725Z,9.40
2017-04-09T02:57:57.480Z,9.50
2017-04-09T02:58:57.393Z,9.40
2017-04-09T02:59:57.178Z,9.50
2017-04-09T03:00:57.847Z,9.50
2017-04-09T03:01:57.582Z,9.50
2017-04-09T03:02:58.035Z,9.50
2017-04-09T03:03:57.819Z,9.50
2017-04-09T03:04:57.555Z,9.50
2017-04-09T03:05:57.287Z,9.50
2017-04-09T03:06:57.028Z,9.50
2017-04-09T03:07:56.833Z,9.50
2017-04-09T03:08:56.655Z,9.50
2017-04-09T03:09:56.492Z,9.50
2017-04-09T03:10:56.269Z,9.40
2017-04-09T03:11:56.036Z,9.40
2017-04-09T03:12:55.831Z,9.40
2017-04-09T03:13:55.578Z,9.40
2017-04-09T03:14:55.364Z,9.50
2017-04-09T03:15:55.225Z,9.50
2017-04-09T03:16:55.053Z,9.50
2017-04-09T03:17:54.783Z,9.60
2017-04-09T03:19:55.235Z,9.60
2017-04-09T03:20:55.801Z,9.60
2017-04-09T03:21:55.600Z,9.60
2017-04-09T03:22:55.414Z,9.60
2017-04-09T03:23:55.250Z,9.60
2017-04-09T03:24:55.750Z,9.50
2017-04-09T03:25:55.534Z,9.50
2017-04-09T03:26:55.305Z,9.50
2017-04-09T03:27:55.067Z,9.50
2017-04-09T03:28:54.827Z,9.50
2017-04-09T03:29:54.650Z,9.50
2017-04-09T03:30:54.436Z,9.60
2017-04-09T03:31:55.003Z,9.50
2017-04-09T03:32:54.795Z,9.50
2017-04-09T03:33:54.575Z,9.50
2017-04-09T03:34:54.342Z,9.50
2017-04-09T03:35:54.067Z,9.50
2017-04-09T03:36:53.797Z,9.50
2017-04-09T03:37:54.363Z,9.50
2017-04-09T03:38:54.122Z,9.50
2017-04-09T03:39:54.654Z,9.40
2017-04-09T03:40:54.536Z,9.50
2017-04-09T03:41:55.059Z,9.50
2017-04-09T03:42:54.958Z,9.50
2017-04-09T03:43:55.543Z,9.50
2017-04-09T03:44:55.319Z,9.50
2017-04-09T03:45:55.096Z,9.40
2017-04-09T03:46:54.881Z,9.50
2017-04-09T03:47:55.463Z,9.50
2017-04-09T03:48:55.261Z,9.50
2017-04-09T03:49:55.046Z,9.40
2017-04-09T03:50:54.805Z,9.50
2017-04-09T03:51:54.559Z,9.50
2017-04-09T03:52:54.345Z,9.40
2017-04-09T03:53:54.130Z,9.40
2017-04-09T03:54:54.009Z,9.40
2017-04-09T03:55:53.743Z,9.40
2017-04-09T03:56:53.495Z,9.40
2017-04-09T03:57:53.999Z,9.30
2017-04-09T03:58:53.789Z,9.30
2017-04-09T03:59:53.535Z,9.30
2017-04-09T04:00:53.338Z,9.30
2017-04-09T04:01:53.074Z,9.30
2017-04-09T04:02:52.819Z,9.30
2017-04-09T04:03:53.331Z,9.30
2017-04-09T04:04:53.913Z,9.40
2017-04-09T04:05:53.650Z,9.40
2017-04-09T04:06:54.178Z,9.40
2017-04-09T04:07:54.011Z,9.40
2017-04-09T04:08:53.775Z,9.40
2017-04-09T04:09:53.548Z,9.30
2017-04-09T04:10:53.357Z,9.30
2017-04-09T04:11:53.089Z,9.30
2017-04-09T04:12:52.840Z,9.40
2017-04-09T04:13:52.588Z,9.40
2017-04-09T04:14:52.317Z,9.40
2017-04-09T04:15:52.075Z,9.40
2017-04-09T04:16:51.884Z,9.40
2017-04-09T04:17:51.655Z,9.40
2017-04-09T04:18:51.390Z,9.40
2017-04-09T04:19:51.136Z,9.50
2017-04-09T04:20:50.866Z,9.40
2017-04-09T04:21:51.337Z,9.40
2017-04-09T04:22:51.135Z,9.40
2017-04-09T04:23:50.871Z,9.40
2017-04-09T04:24:50.607Z,9.30
2017-04-09T04:25:50.340Z,9.30
2017-04-09T04:26:50.817Z,9.20
2017-04-09T04:27:50.622Z,9.30
2017-04-09T04:28:50.338Z,9.30
2017-04-09T04:29:50.067Z,9.40
2017-04-09T04:30:49.827Z,9.50
2017-04-09T04:31:49.573Z,9.50
2017-04-09T04:32:49.300Z,9.50
2017-04-09T04:33:49.830Z,9.50
2017-04-09T04:34:49.561Z,9.50
2017-04-09T04:35:49.310Z,9.50
2017-04-09T04:36:49.791Z,9.40
2017-04-09T04:37:49.633Z,9.40
2017-04-09T04:38:49.365Z,9.30
2017-04-09T04:39:49.359Z,9.30
2017-04-09T04:40:49.137Z,9.30
2017-04-09T04:41:49.611Z,9.30
2017-04-09T04:42:49.382Z,9.40
2017-04-09T04:43:49.205Z,9.40
2017-04-09T04:44:48.972Z,9.50
2017-04-09T04:45:48.716Z,9.40
2017-04-09T04:46:49.240Z,9.50
2017-04-09T04:47:48.994Z,9.50
2017-04-09T04:48:48.782Z,9.40
2017-04-09T04:49:49.335Z,9.40
2017-04-09T04:50:49.074Z,9.50
2017-04-09T04:51:48.825Z,9.50
2017-04-09T04:52:48.581Z,9.60
2017-04-09T04:53:48.327Z,9.60
2017-04-09T04:54:48.058Z,9.60
2017-04-09T04:55:47.878Z,9.70
2017-04-09T04:56:47.595Z,9.70
2017-04-09T04:57:47.352Z,9.80
2017-04-09T04:58:47.097Z,9.80
2017-04-09T04:59:46.822Z,9.80
2017-04-09T05:00:46.604Z,9.80
2017-04-09T05:01:46.364Z,9.80
2017-04-09T05:02:46.094Z,9.90
2017-04-09T05:03:46.564Z,9.80
2017-04-09T05:04:46.302Z,9.80
2017-04-09T05:05:46.087Z,9.70
2017-04-09T05:06:45.826Z,9.70
2017-04-09T05:07:45.618Z,9.70
2017-04-09T05:08:45.346Z,9.70
2017-04-09T05:09:45.083Z,9.70
2017-04-09T05:10:44.813Z,9.70
2017-04-09T05:11:44.551Z,9.70
2017-04-09T05:12:44.291Z,9.80
2017-04-09T05:13:44.110Z,9.80
2017-04-09T05:14:43.866Z,9.80
2017-04-09T05:15:43.618Z,9.90
2017-04-09T05:16:43.358Z,9.90
2017-04-09T05:17:43.107Z,10.00
2017-04-09T05:18:43.632Z,10.00
2017-04-09T05:19:43.443Z,10.10
2017-04-09T05:20:43.277Z,10.10
2017-04-09T05:21:43.034Z,10.10
2017-04-09T05:22:42.825Z,10.10
2017-04-09T05:23:42.671Z,10.10
2017-04-09T05:24:42.399Z,10.20
2017-04-09T05:25:42.198Z,10.10
2017-04-09T05:26:41.954Z,10.00
2017-04-09T05:27:41.690Z,10.10
2017-04-09T05:28:41.424Z,10.10
2017-04-09T05:29:41.898Z,10.10
2017-04-09T05:30:41.713Z,10.10
2017-04-09T05:31:42.215Z,10.20
2017-04-09T05:32:41.961Z,10.20
2017-04-09T05:33:41.738Z,10.40
2017-04-09T05:34:41.460Z,10.40
2017-04-09T05:35:41.201Z,10.50
2017-04-09T05:36:40.978Z,10.50
2017-04-09T05:37:40.762Z,10.50
2017-04-09T05:38:40.494Z,10.50
2017-04-09T05:39:40.234Z,10.50
2017-04-09T05:40:39.967Z,10.50
2017-04-09T05:41:39.711Z,10.50
2017-04-09T05:42:39.475Z,10.60
2017-04-09T05:43:39.231Z,10.70
2017-04-09T05:44:39.052Z,10.70
2017-04-09T05:45:39.526Z,10.80
2017-04-09T05:46:39.275Z,10.80
2017-04-09T05:47:39.816Z,10.70
2017-04-09T05:48:39.577Z,10.70
2017-04-09T05:49:40.091Z,10.70
2017-04-09T05:50:39.861Z,10.70
2017-04-09T05:51:39.604Z,10.70
2017-04-09T05:52:40.140Z,10.70
2017-04-09T05:53:39.893Z,10.70
2017-04-09T05:54:39.628Z,10.70
2017-04-09T05:55:39.391Z,10.70
2017-04-09T05:56:39.117Z,10.70
2017-04-09T05:57:39.603Z,10.80
2017-04-09T05:58:39.395Z,10.80
2017-04-09T05:59:39.147Z,10.80
2017-04-09T06:00:39.680Z,10.80
2017-04-09T06:01:39.402Z,10.90
2017-04-09T06:02:39.143Z,10.90
2017-04-09T06:03:38.886Z,10.80
2017-04-09T06:04:38.673Z,10.80
2017-04-09T06:05:38.407Z,10.90
2017-04-09T06:06:38.134Z,10.80
2017-04-09T06:07:38.630Z,10.80
2017-04-09T06:08:38.399Z,10.80
2017-04-09T06:09:38.195Z,10.80
2017-04-09T06:10:37.936Z,10.90
2017-04-09T06:11:37.668Z,11.00
2017-04-09T06:12:38.134Z,11.10
2017-04-09T06:13:37.878Z,11.10
2017-04-09T06:14:37.615Z,11.20
2017-04-09T06:15:37.390Z,11.20
2017-04-09T06:16:37.165Z,11.30
2017-04-09T06:17:36.898Z,11.40
2017-04-09T06:18:36.619Z,11.30
2017-04-09T06:19:36.340Z,11.40
2017-04-09T06:20:36.057Z,11.30
2017-04-09T06:21:35.858Z,11.20
2017-04-09T06:22:35.610Z,11.20
2017-04-09T06:23:35.439Z,11.40
2017-04-09T06:24:35.195Z,11.50
2017-04-09T06:25:34.947Z,11.40
2017-04-09T06:26:34.692Z,11.40
2017-04-09T06:27:34.513Z,11.50
2017-04-09T06:28:34.271Z,11.60
2017-04-09T06:29:34.014Z,11.70
2017-04-09T06:30:33.802Z,11.70
2017-04-09T06:31:33.557Z,11.60
2017-04-09T06:32:33.309Z,11.60
2017-04-09T06:33:33.129Z,11.60
2017-04-09T06:34:32.850Z,11.60
2017-04-09T06:35:32.585Z,11.60
2017-04-09T06:36:32.341Z,11.70
2017-04-09T06:37:32.088Z,11.70
2017-04-09T06:38:31.910Z,11.80
2017-04-09T06:39:31.732Z,11.80
2017-04-09T06:40:31.523Z,11.60
2017-04-09T06:41:31.289Z,11.60
2017-04-09T06:42:31.392Z,11.60
2017-04-09T06:43:31.877Z,11.60
2017-04-09T06:44:31.664Z,11.60
2017-04-09T06:45:31.487Z,11.70
2017-04-09T06:46:31.328Z,11.70
2017-04-09T06:47:31.083Z,11.90
2017-04-09T06:48:30.875Z,11.90
2017-04-09T06:49:30.611Z,12.00
2017-04-09T06:50:30.418Z,12.00
2017-04-09T06:51:30.139Z,12.20
2017-04-09T06:52:29.862Z,12.30
2017-04-09T06:53:29.614Z,12.30
2017-04-09T06:54:29.373Z,12.40
2017-04-09T06:55:29.157Z,12.40
2017-04-09T06:56:28.955Z,12.40
2017-04-09T06:57:28.689Z,12.30
2017-04-09T06:58:28.448Z,12.30
2017-04-09T06:59:28.191Z,12.40
2017-04-09T07:00:27.959Z,12.40
2017-04-09T07:01:27.715Z,12.50
2017-04-09T07:02:29.282Z,12.60
2017-04-09T07:03:29.049Z,12.60
2017-04-09T07:04:28.792Z,12.60
2017-04-09T07:05:28.561Z,12.60
2017-04-09T07:06:28.443Z,12.60
2017-04-09T07:07:28.958Z,12.60
2017-04-09T07:08:29.502Z,12.80
2017-04-09T07:09:29.299Z,12.70
2017-04-09T07:10:29.100Z,12.70
2017-04-09T07:11:28.893Z,12.80
2017-04-09T07:12:29.467Z,12.90
2017-04-09T07:13:29.249Z,12.80
2017-04-09T07:14:29.010Z,12.70
2017-04-09T07:15:29.500Z,12.60
2017-04-09T07:16:29.263Z,12.70
2017-04-09T07:17:28.993Z,12.70
2017-04-09T07:18:28.740Z,12.70
2017-04-09T07:19:28.558Z,12.70
2017-04-09T07:20:28.317Z,12.70
2017-04-09T07:21:28.057Z,12.90
2017-04-09T07:22:27.832Z,12.90
2017-04-09T07:23:27.585Z,12.90
2017-04-09T07:24:27.354Z,13.00
2017-04-09T07:25:27.138Z,13.10
2017-04-09T07:26:26.905Z,13.30
2017-04-09T07:27:26.642Z,13.30
2017-04-09T07:28:26.472Z,13.30
2017-04-09T07:29:26.194Z,13.50
2017-04-09T07:30:25.942Z,13.30
2017-04-09T07:31:25.767Z,13.40
2017-04-09T07:32:25.506Z,13.30
2017-04-09T07:33:25.258Z,13.30
2017-04-09T07:34:25.053Z,13.40
2017-04-09T07:35:24.871Z,13.30
2017-04-09T07:36:24.686Z,13.40
2017-04-09T07:37:24.509Z,13.40
2017-04-09T07:38:24.269Z,13.40
2017-04-09T07:39:24.081Z,13.40
2017-04-09T07:40:23.869Z,13.40
2017-04-09T07:41:23.765Z,13.50
2017-04-09T07:42:23.503Z,13.70
2017-04-09T07:43:23.300Z,13.70
2017-04-09T07:44:23.042Z,13.80
2017-04-09T07:45:22.834Z,13.80
2017-04-09T07:46:23.519Z,13.80
2017-04-09T07:47:23.294Z,13.90
2017-04-09T07:48:23.139Z,14.00
2017-04-09T07:49:22.927Z,14.10
2017-04-09T07:50:22.670Z,14.20
2017-04-09T07:51:22.446Z,14.30
2017-04-09T07:52:22.223Z,14.20
2017-04-09T07:53:22.194Z,14.20
2017-04-09T07:54:22.020Z,14.30
2017-04-09T07:55:21.780Z,14.40
2017-04-09T07:56:21.681Z,14.40
2017-04-09T07:57:21.503Z,14.40
2017-04-09T07:58:21.279Z,14.50
2017-04-09T07:59:20.984Z,14.60
2017-04-09T08:00:20.938Z,14.60
2017-04-09T08:01:24.522Z,14.70
2017-04-09T08:02:24.282Z,14.70
2017-04-09T08:03:24.132Z,14.70
2017-04-09T08:04:23.873Z,14.70
2017-04-09T08:05:23.721Z,14.90
2017-04-09T08:06:23.698Z,14.90
2017-04-09T08:07:23.494Z,14.80
2017-04-09T08:08:23.267Z,14.70
2017-04-09T08:09:23.751Z,14.50
2017-04-09T08:10:23.511Z,14.50
2017-04-09T08:11:23.360Z,14.40
2017-04-09T08:12:23.103Z,14.40
2017-04-09T08:13:23.015Z,14.50
2017-04-09T08:14:22.779Z,14.70
2017-04-09T08:15:23.654Z,14.80
2017-04-09T08:16:23.480Z,14.90
2017-04-09T08:17:23.223Z,15.00
2017-04-09T08:18:22.969Z,15.10
2017-04-09T08:19:22.718Z,15.10
2017-04-09T08:20:23.241Z,15.10
2017-04-09T08:21:23.052Z,14.90
2017-04-09T08:22:22.799Z,14.90
2017-04-09T08:23:22.545Z,14.80
2017-04-09T08:24:22.256Z,14.80
2017-04-09T08:25:21.999Z,14.60
2017-04-09T08:26:21.741Z,14.60
2017-04-09T08:27:22.303Z,14.70
2017-04-09T08:28:22.037Z,14.80
2017-04-09T08:29:21.759Z,14.80
2017-04-09T08:30:22.287Z,14.80
2017-04-09T08:31:22.289Z,14.80
2017-04-09T08:32:22.059Z,14.80
2017-04-09T08:33:21.815Z,14.90
2017-04-09T08:34:21.665Z,15.00
2017-04-09T08:35:22.424Z,15.10
2017-04-09T08:36:22.187Z,15.20
2017-04-09T08:37:21.933Z,15.30
2017-04-09T08:38:21.721Z,15.50
2017-04-09T08:39:21.479Z,15.50
2017-04-09T08:40:21.309Z,15.70
2017-04-09T08:41:21.055Z,15.90
2017-04-09T08:42:21.176Z,15.90
2017-04-09T08:43:21.274Z,15.90
2017-04-09T08:44:21.784Z,15.90
2017-04-09T08:45:36.303Z,16.00
2017-04-09T08:46:37.198Z,16.20
2017-04-09T08:47:39.224Z,16.10
2017-04-09T08:48:55.066Z,16.30
2017-04-09T08:50:07.392Z,16.30
2017-04-09T08:51:07.290Z,16.40
2017-04-09T08:52:07.050Z,16.30
2017-04-09T08:53:06.811Z,16.30
2017-04-09T08:54:06.572Z,16.30
2017-04-09T08:55:06.307Z,16.40
2017-04-09T08:56:06.052Z,16.50
2017-04-09T08:57:05.823Z,16.50
2017-04-09T08:58:06.369Z,16.50
2017-04-09T08:59:06.127Z,16.70
2017-04-09T09:00:05.891Z,16.70
2017-04-09T09:01:05.726Z,16.70
2017-04-09T09:02:05.549Z,16.80
2017-04-09T09:03:06.297Z,16.80
2017-04-09T09:04:07.091Z,17.00
2017-04-09T09:05:07.566Z,16.90
2017-04-09T09:06:07.493Z,17.00
2017-04-09T09:07:07.219Z,17.20
2017-04-09T09:08:07.708Z,17.30
2017-04-09T09:09:07.483Z,17.30
2017-04-09T09:10:07.275Z,17.00
2017-04-09T09:11:07.038Z,16.90
2017-04-09T09:12:06.853Z,17.40
2017-04-09T09:13:06.635Z,18.30
2017-04-09T09:14:07.096Z,18.90
2017-04-09T09:15:06.902Z,19.50
2017-04-09T09:16:06.648Z,19.80
2017-04-09T09:17:06.442Z,20.20
2017-04-09T09:18:06.170Z,20.20
2017-04-09T09:19:05.910Z,20.60
2017-04-09T09:20:05.619Z,20.80
2017-04-09T09:21:05.342Z,20.90
2017-04-09T09:22:05.774Z,20.80
2017-04-09T09:23:05.546Z,20.90
2017-04-09T09:24:05.246Z,20.80
2017-04-09T09:25:04.966Z,20.80
2017-04-09T09:26:05.422Z,20.50
2017-04-09T09:27:05.201Z,20.30
2017-04-09T09:28:04.917Z,20.00
2017-04-09T09:29:04.695Z,20.00
2017-04-09T09:30:04.500Z,19.70
2017-04-09T09:31:04.271Z,19.60
2017-04-09T09:32:04.051Z,19.70
2017-04-09T09:33:03.791Z,20.00
2017-04-09T09:34:03.557Z,20.20
2017-04-09T09:35:03.385Z,20.60
2017-04-09T09:36:03.158Z,20.90
2017-04-09T09:37:02.870Z,21.40
2017-04-09T09:38:02.575Z,21.50
2017-04-09T09:39:02.291Z,21.90
2017-04-09T09:40:02.049Z,21.90
2017-04-09T09:41:01.894Z,21.20
2017-04-09T09:42:01.662Z,20.80
2017-04-09T09:43:01.411Z,20.80
2017-04-09T09:44:01.156Z,20.50
2017-04-09T09:45:00.878Z,20.40
2017-04-09T09:46:00.682Z,19.80
2017-04-09T09:47:00.533Z,19.30
2017-04-09T09:48:00.272Z,19.00
2017-04-09T09:49:00.810Z,18.60
2017-04-09T09:50:00.590Z,18.50
2017-04-09T09:51:01.103Z,18.20
2017-04-09T09:52:00.895Z,18.30
2017-04-09T09:53:00.853Z,18.30
2017-04-09T09:54:00.649Z,18.30
2017-04-09T09:55:00.369Z,18.30
2017-04-09T09:56:00.248Z,18.30
2017-04-09T09:57:00.007Z,18.30
2017-04-09T09:57:59.857Z,18.00
2017-04-09T09:58:59.745Z,18.00
2017-04-09T09:59:59.495Z,18.00
2017-04-09T10:00:59.263Z,18.00
2017-04-09T10:01:58.995Z,17.90
2017-04-09T10:02:59.019Z,17.90
2017-04-09T10:03:58.800Z,17.70
2017-04-09T10:04:58.650Z,17.60
2017-04-09T10:05:58.530Z,17.50
2017-04-09T10:06:58.506Z,17.20
2017-04-09T10:07:58.289Z,17.10
2017-04-09T10:08:58.135Z,17.20
2017-04-09T10:09:57.950Z,17.10
2017-04-09T10:10:57.700Z,17.30
2017-04-09T10:11:57.511Z,17.30
2017-04-09T10:12:57.292Z,17.50
2017-04-09T10:13:57.018Z,17.60
2017-04-09T10:14:56.846Z,17.70
2017-04-09T10:15:56.716Z,17.70
2017-04-09T10:16:56.529Z,17.80
2017-04-09T10:17:56.306Z,17.80
2017-04-09T10:18:56.126Z,17.90
2017-04-09T10:19:55.905Z,17.90
2017-04-09T10:20:55.682Z,17.90
2017-04-09T10:21:55.647Z,17.60
2017-04-09T10:22:55.425Z,17.60
2017-04-09T10:23:55.415Z,17.70
2017-04-09T10:24:55.176Z,17.70
2017-04-09T10:25:54.941Z,17.80
2017-04-09T10:26:54.778Z,17.90
2017-04-09T10:27:54.511Z,18.00
2017-04-09T10:28:54.252Z,18.00
2017-04-09T10:29:54.005Z,17.80
2017-04-09T10:30:53.816Z,17.50
2017-04-09T10:31:53.730Z,17.30
2017-04-09T10:32:53.619Z,17.30
2017-04-09T10:33:53.360Z,17.30
2017-04-09T10:34:54.055Z,17.40
2017-04-09T10:35:53.811Z,17.50
2017-04-09T10:36:53.535Z,17.60
2017-04-09T10:37:53.348Z,17.60
2017-04-09T10:38:53.127Z,17.70
2017-04-09T10:39:52.929Z,17.80
2017-04-09T10:40:52.653Z,17.90
2017-04-09T10:41:52.387Z,18.00
2017-04-09T10:42:52.175Z,18.10
2017-04-09T10:43:52.120Z,18.10
2017-04-09T10:44:51.865Z,18.20
2017-04-09T10:45:51.642Z,18.20
2017-04-09T10:46:51.401Z,18.30
2017-04-09T10:47:51.222Z,18.30
2017-04-09T10:48:50.978Z,18.30
2017-04-09T10:49:50.769Z,18.30
2017-04-09T10:50:50.501Z,18.30
2017-04-09T10:51:50.311Z,18.40
2017-04-09T10:52:50.089Z,18.50
2017-04-09T10:53:49.871Z,18.60
2017-04-09T10:54:49.613Z,18.60
2017-04-09T10:55:49.400Z,18.70
2017-04-09T10:56:49.151Z,18.60
2017-04-09T10:57:48.934Z,18.60
2017-04-09T10:58:48.711Z,18.70
2017-04-09T10:59:48.593Z,18.80
2017-04-09T11:00:48.471Z,18.70
2017-04-09T11:01:48.329Z,18.60
2017-04-09T11:02:48.092Z,18.60
2017-04-09T11:03:47.869Z,18.50
2017-04-09T11:04:47.602Z,18.60
2017-04-09T11:05:47.513Z,18.70
2017-04-09T11:06:47.296Z,18.80
2017-04-09T11:07:47.099Z,18.90
2017-04-09T11:08:47.601Z,18.90
2017-04-09T11:09:47.370Z,18.90
2017-04-09T11:10:47.142Z,18.90
2017-04-09T11:11:46.902Z,19.10
2017-04-09T11:12:46.627Z,19.10
2017-04-09T11:13:46.448Z,19.20
2017-04-09T11:14:46.178Z,19.30
2017-04-09T11:15:45.917Z,19.30
2017-04-09T11:16:46.381Z,19.40
2017-04-09T11:17:46.114Z,19.30
2017-04-09T11:18:46.157Z,19.40
2017-04-09T11:19:45.899Z,19.40
2017-04-09T11:20:45.648Z,19.30
2017-04-09T11:21:46.095Z,19.20
2017-04-09T11:22:45.872Z,19.20
2017-04-09T11:23:45.596Z,19.20
2017-04-09T11:24:45.414Z,19.10
2017-04-09T11:25:45.167Z,19.10
2017-04-09T11:26:44.937Z,19.00
2017-04-09T11:27:44.697Z,18.80
2017-04-09T11:28:44.436Z,18.70
2017-04-09T11:29:44.211Z,18.50
2017-04-09T11:30:44.772Z,18.50
2017-04-09T11:31:45.259Z,18.50
2017-04-09T11:32:45.015Z,18.70
2017-04-09T11:33:44.758Z,18.90
2017-04-09T11:34:44.528Z,19.10
2017-04-09T11:35:45.066Z,19.10
2017-04-09T11:36:44.829Z,19.20
2017-04-09T11:37:44.860Z,19.50
2017-04-09T11:38:44.634Z,19.70
2017-04-09T11:39:44.477Z,19.80
2017-04-09T11:40:44.227Z,19.90
2017-04-09T11:41:44.770Z,20.10
2017-04-09T11:42:44.495Z,20.20
2017-04-09T11:43:44.241Z,20.20
2017-04-09T11:44:43.972Z,20.40
2017-04-09T11:45:44.483Z,20.70
2017-04-09T11:46:44.226Z,20.80
2017-04-09T11:47:44.190Z,20.90
2017-04-09T11:48:44.067Z,21.20
2017-04-09T11:49:43.798Z,21.40
2017-04-09T11:50:43.579Z,21.50
2017-04-09T11:51:43.413Z,21.70
2017-04-09T11:52:43.892Z,21.70
2017-04-09T11:53:43.786Z,21.60
2017-04-09T11:54:43.738Z,21.50
2017-04-09T11:55:43.525Z,21.40
2017-04-09T11:56:43.309Z,21.30
2017-04-09T11:57:43.118Z,21.10
2017-04-09T11:58:42.871Z,20.90
2017-04-09T11:59:42.741Z,20.80
2017-04-09T12:00:42.486Z,20.80
2017-04-09T12:01:42.224Z,20.60
2017-04-09T12:02:42.091Z,20.50
2017-04-09T12:03:41.929Z,20.30
2017-04-09T12:04:41.823Z,20.30
2017-04-09T12:05:41.705Z,20.30
2017-04-09T12:06:41.499Z,20.30
2017-04-09T12:07:42.029Z,20.30
2017-04-09T12:08:41.929Z,20.40
2017-04-09T12:09:41.685Z,20.20
2017-04-09T12:10:41.452Z,20.30
2017-04-09T12:11:41.276Z,20.50
2017-04-09T12:12:41.031Z,20.40
2017-04-09T12:13:40.769Z,20.40
2017-04-09T12:14:40.534Z,20.40
2017-04-09T12:15:40.311Z,20.50
2017-04-09T12:16:40.051Z,20.50
2017-04-09T12:17:39.910Z,20.40
2017-04-09T12:18:40.446Z,20.20
2017-04-09T12:19:40.209Z,20.20
2017-04-09T12:20:39.979Z,20.00
2017-04-09T12:21:39.773Z,19.80
2017-04-09T12:22:39.698Z,19.40
2017-04-09T12:23:39.486Z,19.20
2017-04-09T12:24:39.319Z,19.20
2017-04-09T12:25:39.075Z,19.20
2017-04-09T12:26:38.851Z,19.30
2017-04-09T12:27:38.602Z,19.40
2017-04-09T12:28:38.395Z,19.60
2017-04-09T12:29:38.151Z,19.70
2017-04-09T12:30:37.875Z,19.70
2017-04-09T12:31:37.607Z,19.80
2017-04-09T12:32:37.332Z,19.70
2017-04-09T12:33:37.053Z,19.70
2017-04-09T12:34:36.876Z,19.80
2017-04-09T12:35:36.614Z,19.70
2017-04-09T12:36:36.377Z,19.60
2017-04-09T12:37:36.100Z,19.50
2017-04-09T12:38:35.840Z,19.30
2017-04-09T12:39:35.821Z,19.30
2017-04-09T12:40:36.428Z,19.20
2017-04-09T12:41:36.200Z,19.00
2017-04-09T12:42:36.771Z,18.90
2017-04-09T12:43:36.599Z,18.80
2017-04-09T12:44:36.345Z,18.80
2017-04-09T12:45:36.125Z,18.90
2017-04-09T12:46:35.950Z,18.90
2017-04-09T12:47:35.741Z,18.90
2017-04-09T12:48:35.505Z,19.00
2017-04-09T12:49:35.295Z,18.90
2017-04-09T12:50:35.215Z,19.00
2017-04-09T12:51:35.045Z,19.00
2017-04-09T12:52:35.424Z,19.10
2017-04-09T12:53:35.549Z,18.90
2017-04-09T12:54:35.315Z,19.00
2017-04-09T12:55:35.842Z,19.00
2017-04-09T12:56:35.614Z,19.00
2017-04-09T12:57:35.458Z,19.00
2017-04-09T12:58:35.277Z,19.10
2017-04-09T12:59:35.051Z,19.00
2017-04-09T13:00:34.821Z,19.10
2017-04-09T13:01:34.601Z,19.10
2017-04-09T13:02:34.929Z,19.00